sensor_id;sensor_type;location;lat;lon;timestamp;temperature;humidity
3005;DHT22;1512;51.486;6.610;2023-03-01T00:01:14;0.90;1.00
3005;DHT22;1512;51.486;6.610;2023-03-01T00:05:23;0.90;1.00
3005;DHT22;1512;51.486;6.610;2023-03-01T00:09:31;0.90;1.00
3005;DHT22;1512;51.486;6.610;2023-03-01T00:13:40;0.90;1.00
3005;DHT22;1512;51.486;6.610;2023-03-01T00:17:49;0.90;1.00
3005;DHT22;1512;51.486;6.610;2023-03-01T00:21:58;0.90;1.00
3005;DHT22;1512;51.486;6.610;2023-03-01T00:26:09;0.90;1.00
3005;DHT22;1512;51.486;6.610;2023-03-01T00:30:18;0.90;1.00
3005;DHT22;1512;51.486;6.610;2023-03-01T00:34:27;0.90;1.00
3005;DHT22;1512;51.486;6.610;2023-03-01T00:38:40;0.80;1.00
3005;DHT22;1512;51.486;6.610;2023-03-01T00:42:48;0.80;1.00
3005;DHT22;1512;51.486;6.610;2023-03-01T00:46:57;0.80;1.00
3005;DHT22;1512;51.486;6.610;2023-03-01T00:55:20;0.70;1.00
3005;DHT22;1512;51.486;6.610;2023-03-01T00:59:29;0.70;1.00
3005;DHT22;1512;51.486;6.610;2023-03-01T01:03:37;0.70;1.00
3005;DHT22;1512;51.486;6.610;2023-03-01T01:07:46;0.70;1.00
3005;DHT22;1512;51.486;6.610;2023-03-01T01:11:55;0.60;1.00
3005;DHT22;1512;51.486;6.610;2023-03-01T01:16:04;0.50;1.00
3005;DHT22;1512;51.486;6.610;2023-03-01T01:20:13;0.50;1.00
3005;DHT22;1512;51.486;6.610;2023-03-01T01:24:22;0.50;1.00
3005;DHT22;1512;51.486;6.610;2023-03-01T01:28:50;0.40;1.00
3005;DHT22;1512;51.486;6.610;2023-03-01T01:32:58;0.40;1.00
3005;DHT22;1512;51.486;6.610;2023-03-01T01:37:07;0.40;1.00
3005;DHT22;1512;51.486;6.610;2023-03-01T01:41:16;0.40;1.00
3005;DHT22;1512;51.486;6.610;2023-03-01T01:45:36;0.40;1.00
3005;DHT22;1512;51.486;6.610;2023-03-01T01:49:50;0.40;1.00
3005;DHT22;1512;51.486;6.610;2023-03-01T01:54:00;0.30;1.00
3005;DHT22;1512;51.486;6.610;2023-03-01T01:58:12;0.30;1.00
3005;DHT22;1512;51.486;6.610;2023-03-01T02:02:21;0.30;1.00
3005;DHT22;1512;51.486;6.610;2023-03-01T02:06:41;0.20;1.00
3005;DHT22;1512;51.486;6.610;2023-03-01T02:10:45;0.20;1.00
3005;DHT22;1512;51.486;6.610;2023-03-01T02:14:54;0.20;1.00
3005;DHT22;1512;51.486;6.610;2023-03-01T02:19:05;0.30;1.00
3005;DHT22;1512;51.486;6.610;2023-03-01T02:23:13;0.20;1.00
3005;DHT22;1512;51.486;6.610;2023-03-01T02:27:25;0.10;1.00
3005;DHT22;1512;51.486;6.610;2023-03-01T02:31:34;0.10;1.00
3005;DHT22;1512;51.486;6.610;2023-03-01T02:35:53;0.10;1.00
3005;DHT22;1512;51.486;6.610;2023-03-01T02:40:06;0.10;1.00
3005;DHT22;1512;51.486;6.610;2023-03-01T02:44:14;0.10;1.00
3005;DHT22;1512;51.486;6.610;2023-03-01T02:48:23;0.10;1.00
3005;DHT22;1512;51.486;6.610;2023-03-01T02:52:46;0.00;1.00
3005;DHT22;1512;51.486;6.610;2023-03-01T02:56:55;0.00;1.00
3005;DHT22;1512;51.486;6.610;2023-03-01T03:01:04;0.00;1.00
3005;DHT22;1512;51.486;6.610;2023-03-01T03:09:25;-0.10;1.00
3005;DHT22;1512;51.486;6.610;2023-03-01T03:13:34;-0.10;1.00
3005;DHT22;1512;51.486;6.610;2023-03-01T03:18:02;-0.10;1.00
3005;DHT22;1512;51.486;6.610;2023-03-01T03:22:12;-0.10;1.00
3005;DHT22;1512;51.486;6.610;2023-03-01T03:26:21;-0.10;1.00
3005;DHT22;1512;51.486;6.610;2023-03-01T03:30:31;0.00;1.00
3005;DHT22;1512;51.486;6.610;2023-03-01T03:34:39;-0.10;1.00
3005;DHT22;1512;51.486;6.610;2023-03-01T03:38:48;-0.10;1.00
3005;DHT22;1512;51.486;6.610;2023-03-01T03:42:57;-0.10;1.00
3005;DHT22;1512;51.486;6.610;2023-03-01T03:47:05;-0.20;1.00
3005;DHT22;1512;51.486;6.610;2023-03-01T03:51:16;-0.20;1.00
3005;DHT22;1512;51.486;6.610;2023-03-01T03:55:25;-0.20;1.00
3005;DHT22;1512;51.486;6.610;2023-03-01T03:59:35;-0.20;1.00
3005;DHT22;1512;51.486;6.610;2023-03-01T04:03:43;-0.20;1.00
3005;DHT22;1512;51.486;6.610;2023-03-01T04:07:54;-0.20;1.00
3005;DHT22;1512;51.486;6.610;2023-03-01T04:12:04;-0.20;1.00
3005;DHT22;1512;51.486;6.610;2023-03-01T04:16:13;-0.20;1.00
3005;DHT22;1512;51.486;6.610;2023-03-01T04:20:24;-0.20;1.00
3005;DHT22;1512;51.486;6.610;2023-03-01T04:24:33;-0.30;1.00
3005;DHT22;1512;51.486;6.610;2023-03-01T04:28:42;-0.30;1.00
3005;DHT22;1512;51.486;6.610;2023-03-01T04:32:53;-0.30;1.00
3005;DHT22;1512;51.486;6.610;2023-03-01T04:37:21;-0.40;1.00
3005;DHT22;1512;51.486;6.610;2023-03-01T04:41:30;-0.40;1.00
3005;DHT22;1512;51.486;6.610;2023-03-01T04:45:38;-0.60;1.00
3005;DHT22;1512;51.486;6.610;2023-03-01T04:49:47;-0.70;1.00
3005;DHT22;1512;51.486;6.610;2023-03-01T04:53:56;-0.60;1.00
3005;DHT22;1512;51.486;6.610;2023-03-01T04:58:05;-0.60;1.00
3005;DHT22;1512;51.486;6.610;2023-03-01T05:02:13;-0.60;1.00
3005;DHT22;1512;51.486;6.610;2023-03-01T05:06:22;-0.60;1.00
3005;DHT22;1512;51.486;6.610;2023-03-01T05:10:32;-0.60;1.00
3005;DHT22;1512;51.486;6.610;2023-03-01T05:14:42;-0.50;1.00
3005;DHT22;1512;51.486;6.610;2023-03-01T05:18:51;-0.50;1.00
3005;DHT22;1512;51.486;6.610;2023-03-01T05:23:00;-0.50;1.00
3005;DHT22;1512;51.486;6.610;2023-03-01T05:27:10;-0.50;1.00
3005;DHT22;1512;51.486;6.610;2023-03-01T05:31:40;-0.50;1.00
3005;DHT22;1512;51.486;6.610;2023-03-01T05:35:49;-0.50;1.00
3005;DHT22;1512;51.486;6.610;2023-03-01T05:39:59;-0.40;1.00
3005;DHT22;1512;51.486;6.610;2023-03-01T05:44:07;-0.50;1.00
3005;DHT22;1512;51.486;6.610;2023-03-01T05:48:16;-0.40;1.00
3005;DHT22;1512;51.486;6.610;2023-03-01T05:52:27;-0.50;1.00
3005;DHT22;1512;51.486;6.610;2023-03-01T05:56:36;-0.60;1.00
3005;DHT22;1512;51.486;6.610;2023-03-01T06:00:47;-0.60;1.00
3005;DHT22;1512;51.486;6.610;2023-03-01T06:04:55;-0.60;1.00
3005;DHT22;1512;51.486;6.610;2023-03-01T06:09:05;-0.60;1.00
3005;DHT22;1512;51.486;6.610;2023-03-01T06:13:14;-0.50;1.00
3005;DHT22;1512;51.486;6.610;2023-03-01T06:17:23;-0.50;1.00
3005;DHT22;1512;51.486;6.610;2023-03-01T06:21:32;-0.70;1.00
3005;DHT22;1512;51.486;6.610;2023-03-01T06:26:00;-0.70;1.00
3005;DHT22;1512;51.486;6.610;2023-03-01T06:30:10;-0.60;1.00
3005;DHT22;1512;51.486;6.610;2023-03-01T06:34:19;-0.60;1.00
3005;DHT22;1512;51.486;6.610;2023-03-01T06:38:29;-0.60;1.00
3005;DHT22;1512;51.486;6.610;2023-03-01T06:42:39;-0.60;1.00
3005;DHT22;1512;51.486;6.610;2023-03-01T06:46:48;-0.70;1.00
3005;DHT22;1512;51.486;6.610;2023-03-01T06:51:01;-0.70;1.00
3005;DHT22;1512;51.486;6.610;2023-03-01T06:55:10;-0.70;1.00
3005;DHT22;1512;51.486;6.610;2023-03-01T06:59:19;-0.70;1.00
3005;DHT22;1512;51.486;6.610;2023-03-01T07:03:27;-0.70;1.00
3005;DHT22;1512;51.486;6.610;2023-03-01T07:07:36;-0.60;1.00
3005;DHT22;1512;51.486;6.610;2023-03-01T07:11:45;-0.70;1.00
3005;DHT22;1512;51.486;6.610;2023-03-01T07:15:54;-0.60;1.00
3005;DHT22;1512;51.486;6.610;2023-03-01T07:20:03;-0.60;1.00
3005;DHT22;1512;51.486;6.610;2023-03-01T07:24:11;-0.50;1.00
3005;DHT22;1512;51.486;6.610;2023-03-01T07:28:22;-0.40;1.00
3005;DHT22;1512;51.486;6.610;2023-03-01T07:32:30;-0.40;1.00
3005;DHT22;1512;51.486;6.610;2023-03-01T07:36:39;-0.30;1.00
3005;DHT22;1512;51.486;6.610;2023-03-01T07:40:49;-0.30;1.00
3005;DHT22;1512;51.486;6.610;2023-03-01T07:44:58;-0.20;1.00
3005;DHT22;1512;51.486;6.610;2023-03-01T07:49:07;-0.20;1.00
3005;DHT22;1512;51.486;6.610;2023-03-01T07:53:15;-0.20;1.00
3005;DHT22;1512;51.486;6.610;2023-03-01T07:57:24;-0.10;1.00
3005;DHT22;1512;51.486;6.610;2023-03-01T08:01:36;0.00;1.00
3005;DHT22;1512;51.486;6.610;2023-03-01T08:05:45;0.10;1.00
3005;DHT22;1512;51.486;6.610;2023-03-01T08:09:53;0.10;1.00
3005;DHT22;1512;51.486;6.610;2023-03-01T08:14:21;0.20;1.00
3005;DHT22;1512;51.486;6.610;2023-03-01T08:18:30;0.30;1.00
3005;DHT22;1512;51.486;6.610;2023-03-01T08:22:38;0.40;1.00
3005;DHT22;1512;51.486;6.610;2023-03-01T08:26:47;0.50;1.00
3005;DHT22;1512;51.486;6.610;2023-03-01T08:30:56;0.50;1.00
3005;DHT22;1512;51.486;6.610;2023-03-01T08:35:05;0.60;1.00
3005;DHT22;1512;51.486;6.610;2023-03-01T08:39:16;0.70;1.00
3005;DHT22;1512;51.486;6.610;2023-03-01T08:43:25;0.80;1.00
3005;DHT22;1512;51.486;6.610;2023-03-01T08:47:34;0.90;1.00
3005;DHT22;1512;51.486;6.610;2023-03-01T08:51:44;1.00;1.00
3005;DHT22;1512;51.486;6.610;2023-03-01T08:55:53;1.20;1.00
3005;DHT22;1512;51.486;6.610;2023-03-01T09:00:02;1.40;1.00
3005;DHT22;1512;51.486;6.610;2023-03-01T09:04:11;1.60;1.00
3005;DHT22;1512;51.486;6.610;2023-03-01T09:08:20;1.70;1.00
3005;DHT22;1512;51.486;6.610;2023-03-01T09:12:29;1.90;1.00
3005;DHT22;1512;51.486;6.610;2023-03-01T09:16:37;2.10;1.00
3005;DHT22;1512;51.486;6.610;2023-03-01T09:20:47;2.20;1.00
3005;DHT22;1512;51.486;6.610;2023-03-01T09:24:55;2.40;1.00
3005;DHT22;1512;51.486;6.610;2023-03-01T09:29:06;2.50;1.00
3005;DHT22;1512;51.486;6.610;2023-03-01T09:33:16;2.70;1.00
3005;DHT22;1512;51.486;6.610;2023-03-01T09:37:27;2.90;1.00
3005;DHT22;1512;51.486;6.610;2023-03-01T09:45:48;3.10;1.00
3005;DHT22;1512;51.486;6.610;2023-03-01T09:50:12;3.20;1.00
3005;DHT22;1512;51.486;6.610;2023-03-01T09:54:22;3.20;1.00
3005;DHT22;1512;51.486;6.610;2023-03-01T09:58:45;3.40;1.00
3005;DHT22;1512;51.486;6.610;2023-03-01T10:03:23;3.50;1.00
3005;DHT22;1512;51.486;6.610;2023-03-01T10:07:53;3.70;1.00
3005;DHT22;1512;51.486;6.610;2023-03-01T10:12:01;3.80;1.00
3005;DHT22;1512;51.486;6.610;2023-03-01T10:16:13;3.80;1.00
3005;DHT22;1512;51.486;6.610;2023-03-01T10:20:25;3.90;1.00
3005;DHT22;1512;51.486;6.610;2023-03-01T10:24:35;3.90;1.00
3005;DHT22;1512;51.486;6.610;2023-03-01T10:33:28;4.10;1.00
3005;DHT22;1512;51.486;6.610;2023-03-01T10:37:45;4.30;99.90
3005;DHT22;1512;51.486;6.610;2023-03-01T10:42:04;4.40;99.90
3005;DHT22;1512;51.486;6.610;2023-03-01T10:50:36;4.90;99.90
3005;DHT22;1512;51.486;6.610;2023-03-01T10:54:53;5.10;99.90
3005;DHT22;1512;51.486;6.610;2023-03-01T10:59:04;5.20;99.90
3005;DHT22;1512;51.486;6.610;2023-03-01T11:07:46;5.50;99.90
3005;DHT22;1512;51.486;6.610;2023-03-01T11:11:51;5.60;99.90
3005;DHT22;1512;51.486;6.610;2023-03-01T11:16:09;5.60;99.90
3005;DHT22;1512;51.486;6.610;2023-03-01T11:20:31;5.80;99.90
3005;DHT22;1512;51.486;6.610;2023-03-01T11:24:54;6.00;99.90
3005;DHT22;1512;51.486;6.610;2023-03-01T11:29:03;6.10;99.90
3005;DHT22;1512;51.486;6.610;2023-03-01T11:37:53;6.30;99.90
3005;DHT22;1512;51.486;6.610;2023-03-01T11:42:06;6.30;99.90
3005;DHT22;1512;51.486;6.610;2023-03-01T11:50:48;6.60;99.90
3005;DHT22;1512;51.486;6.610;2023-03-01T11:59:43;6.70;99.90
3005;DHT22;1512;51.486;6.610;2023-03-01T12:49:56;6.90;99.90
3005;DHT22;1512;51.486;6.610;2023-03-01T12:53:31;7.00;99.90
3005;DHT22;1512;51.486;6.610;2023-03-01T12:57:49;7.10;99.90
3005;DHT22;1512;51.486;6.610;2023-03-01T13:06:39;7.00;99.90
3005;DHT22;1512;51.486;6.610;2023-03-01T13:11:00;7.10;99.90
3005;DHT22;1512;51.486;6.610;2023-03-01T13:15:35;7.10;99.90
3005;DHT22;1512;51.486;6.610;2023-03-01T13:19:56;7.20;99.90
3005;DHT22;1512;51.486;6.610;2023-03-01T13:37:32;7.00;99.90
3005;DHT22;1512;51.486;6.610;2023-03-01T13:45:56;7.10;99.90
3005;DHT22;1512;51.486;6.610;2023-03-01T13:50:16;7.00;99.90
3005;DHT22;1512;51.486;6.610;2023-03-01T13:54:30;7.10;99.90
3005;DHT22;1512;51.486;6.610;2023-03-01T13:58:58;7.00;99.90
3005;DHT22;1512;51.486;6.610;2023-03-01T14:03:16;7.10;99.90
3005;DHT22;1512;51.486;6.610;2023-03-01T14:07:26;7.20;99.90
3005;DHT22;1512;51.486;6.610;2023-03-01T14:24:31;7.20;99.90
3005;DHT22;1512;51.486;6.610;2023-03-01T14:29:00;7.20;99.90
3005;DHT22;1512;51.486;6.610;2023-03-01T14:33:33;7.20;99.90
3005;DHT22;1512;51.486;6.610;2023-03-01T14:37:41;7.30;99.90
3005;DHT22;1512;51.486;6.610;2023-03-01T14:41:50;7.30;99.90
3005;DHT22;1512;51.486;6.610;2023-03-01T14:45:59;7.30;99.90
3005;DHT22;1512;51.486;6.610;2023-03-01T14:54:29;7.20;99.90
3005;DHT22;1512;51.486;6.610;2023-03-01T14:59:01;7.20;99.90
3005;DHT22;1512;51.486;6.610;2023-03-01T15:03:40;7.20;99.90
3005;DHT22;1512;51.486;6.610;2023-03-01T15:07:45;7.20;99.90
3005;DHT22;1512;51.486;6.610;2023-03-01T15:11:55;7.20;99.90
3005;DHT22;1512;51.486;6.610;2023-03-01T15:16:06;7.20;99.90
3005;DHT22;1512;51.486;6.610;2023-03-01T15:20:18;7.10;99.90
3005;DHT22;1512;51.486;6.610;2023-03-01T15:24:31;7.00;99.90
3005;DHT22;1512;51.486;6.610;2023-03-01T15:28:43;6.90;99.90
3005;DHT22;1512;51.486;6.610;2023-03-01T15:37:47;6.80;99.90
3005;DHT22;1512;51.486;6.610;2023-03-01T15:41:57;6.80;99.90
3005;DHT22;1512;51.486;6.610;2023-03-01T15:46:44;6.80;99.90
3005;DHT22;1512;51.486;6.610;2023-03-01T15:50:36;6.70;99.90
3005;DHT22;1512;51.486;6.610;2023-03-01T15:54:41;6.70;99.90
3005;DHT22;1512;51.486;6.610;2023-03-01T15:58:50;6.60;99.90
3005;DHT22;1512;51.486;6.610;2023-03-01T16:02:59;6.50;99.90
3005;DHT22;1512;51.486;6.610;2023-03-01T16:07:10;6.50;99.90
3005;DHT22;1512;51.486;6.610;2023-03-01T16:11:25;6.40;99.90
3005;DHT22;1512;51.486;6.610;2023-03-01T16:15:35;6.40;99.90
3005;DHT22;1512;51.486;6.610;2023-03-01T16:19:44;6.30;99.90
3005;DHT22;1512;51.486;6.610;2023-03-01T16:23:53;6.30;99.90
3005;DHT22;1512;51.486;6.610;2023-03-01T16:28:01;6.30;99.90
3005;DHT22;1512;51.486;6.610;2023-03-01T16:32:11;6.20;99.90
3005;DHT22;1512;51.486;6.610;2023-03-01T16:36:22;6.10;99.90
3005;DHT22;1512;51.486;6.610;2023-03-01T16:40:31;6.10;99.90
3005;DHT22;1512;51.486;6.610;2023-03-01T16:44:59;6.00;99.90
3005;DHT22;1512;51.486;6.610;2023-03-01T16:49:10;6.00;99.90
3005;DHT22;1512;51.486;6.610;2023-03-01T16:53:19;5.90;99.90
3005;DHT22;1512;51.486;6.610;2023-03-01T16:57:28;5.80;99.90
3005;DHT22;1512;51.486;6.610;2023-03-01T17:01:36;5.70;99.90
3005;DHT22;1512;51.486;6.610;2023-03-01T17:05:47;5.70;99.90
3005;DHT22;1512;51.486;6.610;2023-03-01T17:09:56;5.60;99.90
3005;DHT22;1512;51.486;6.610;2023-03-01T17:14:04;5.60;99.90
3005;DHT22;1512;51.486;6.610;2023-03-01T17:18:13;5.40;99.90
3005;DHT22;1512;51.486;6.610;2023-03-01T17:22:22;5.40;99.90
3005;DHT22;1512;51.486;6.610;2023-03-01T17:26:30;5.30;99.90
3005;DHT22;1512;51.486;6.610;2023-03-01T17:30:59;5.20;99.90
3005;DHT22;1512;51.486;6.610;2023-03-01T17:35:08;5.20;99.90
3005;DHT22;1512;51.486;6.610;2023-03-01T17:39:20;5.10;99.90
3005;DHT22;1512;51.486;6.610;2023-03-01T17:43:30;5.00;99.90
3005;DHT22;1512;51.486;6.610;2023-03-01T17:47:41;5.00;99.90
3005;DHT22;1512;51.486;6.610;2023-03-01T17:51:49;4.90;99.90
3005;DHT22;1512;51.486;6.610;2023-03-01T17:56:00;4.90;99.90
3005;DHT22;1512;51.486;6.610;2023-03-01T18:00:11;4.80;99.90
3005;DHT22;1512;51.486;6.610;2023-03-01T18:04:20;4.70;99.90
3005;DHT22;1512;51.486;6.610;2023-03-01T18:08:29;4.70;99.90
3005;DHT22;1512;51.486;6.610;2023-03-01T18:12:38;4.60;99.90
3005;DHT22;1512;51.486;6.610;2023-03-01T18:16:46;4.60;99.90
3005;DHT22;1512;51.486;6.610;2023-03-01T18:20:57;4.60;99.90
3005;DHT22;1512;51.486;6.610;2023-03-01T18:25:06;4.60;99.90
3005;DHT22;1512;51.486;6.610;2023-03-01T18:29:15;4.50;99.90
3005;DHT22;1512;51.486;6.610;2023-03-01T18:33:27;4.50;99.90
3005;DHT22;1512;51.486;6.610;2023-03-01T18:37:36;4.40;99.90
3005;DHT22;1512;51.486;6.610;2023-03-01T18:41:45;4.30;99.90
3005;DHT22;1512;51.486;6.610;2023-03-01T18:45:57;4.30;99.90
3005;DHT22;1512;51.486;6.610;2023-03-01T18:50:06;4.30;99.90
3005;DHT22;1512;51.486;6.610;2023-03-01T18:54:15;4.20;99.90
3005;DHT22;1512;51.486;6.610;2023-03-01T18:58:24;4.20;99.90
3005;DHT22;1512;51.486;6.610;2023-03-01T19:02:32;4.20;99.90
3005;DHT22;1512;51.486;6.610;2023-03-01T19:06:41;4.10;99.90
3005;DHT22;1512;51.486;6.610;2023-03-01T19:11:02;4.20;99.90
3005;DHT22;1512;51.486;6.610;2023-03-01T19:15:11;4.10;99.90
3005;DHT22;1512;51.486;6.610;2023-03-01T19:19:21;4.10;99.90
3005;DHT22;1512;51.486;6.610;2023-03-01T19:23:31;4.00;99.90
3005;DHT22;1512;51.486;6.610;2023-03-01T19:27:42;3.90;99.90
3005;DHT22;1512;51.486;6.610;2023-03-01T19:31:51;3.90;99.90
3005;DHT22;1512;51.486;6.610;2023-03-01T19:36:00;3.80;99.90
3005;DHT22;1512;51.486;6.610;2023-03-01T19:40:11;3.80;99.90
3005;DHT22;1512;51.486;6.610;2023-03-01T19:44:19;3.70;99.90
3005;DHT22;1512;51.486;6.610;2023-03-01T19:48:31;3.70;99.90
3005;DHT22;1512;51.486;6.610;2023-03-01T19:52:43;3.70;99.90
3005;DHT22;1512;51.486;6.610;2023-03-01T19:56:51;3.70;99.90
3005;DHT22;1512;51.486;6.610;2023-03-01T20:01:02;3.50;99.90
3005;DHT22;1512;51.486;6.610;2023-03-01T20:05:10;3.50;99.90
3005;DHT22;1512;51.486;6.610;2023-03-01T20:09:19;3.50;99.90
3005;DHT22;1512;51.486;6.610;2023-03-01T20:13:29;3.50;99.90
3005;DHT22;1512;51.486;6.610;2023-03-01T20:17:38;3.50;99.90
3005;DHT22;1512;51.486;6.610;2023-03-01T20:21:46;3.40;99.90
3005;DHT22;1512;51.486;6.610;2023-03-01T20:26:03;3.40;99.90
3005;DHT22;1512;51.486;6.610;2023-03-01T20:30:13;3.40;99.90
3005;DHT22;1512;51.486;6.610;2023-03-01T20:34:22;3.40;99.90
3005;DHT22;1512;51.486;6.610;2023-03-01T20:38:31;3.30;99.90
3005;DHT22;1512;51.486;6.610;2023-03-01T20:42:40;3.30;99.90
3005;DHT22;1512;51.486;6.610;2023-03-01T20:46:48;3.30;99.90
3005;DHT22;1512;51.486;6.610;2023-03-01T20:50:57;3.30;99.90
3005;DHT22;1512;51.486;6.610;2023-03-01T20:55:09;3.30;99.90
3005;DHT22;1512;51.486;6.610;2023-03-01T20:59:18;3.20;99.90
3005;DHT22;1512;51.486;6.610;2023-03-01T21:03:27;3.20;99.90
3005;DHT22;1512;51.486;6.610;2023-03-01T21:07:36;3.20;99.90
3005;DHT22;1512;51.486;6.610;2023-03-01T21:11:44;3.20;99.90
3005;DHT22;1512;51.486;6.610;2023-03-01T21:15:59;3.20;99.90
3005;DHT22;1512;51.486;6.610;2023-03-01T21:20:09;3.20;99.90
3005;DHT22;1512;51.486;6.610;2023-03-01T21:24:17;3.20;99.90
3005;DHT22;1512;51.486;6.610;2023-03-01T21:28:26;3.10;99.90
3005;DHT22;1512;51.486;6.610;2023-03-01T21:32:36;3.10;99.90
3005;DHT22;1512;51.486;6.610;2023-03-01T21:37:05;3.10;99.90
3005;DHT22;1512;51.486;6.610;2023-03-01T21:41:17;3.10;1.00
3005;DHT22;1512;51.486;6.610;2023-03-01T21:45:25;3.00;1.00
3005;DHT22;1512;51.486;6.610;2023-03-01T21:49:34;3.00;1.00
3005;DHT22;1512;51.486;6.610;2023-03-01T21:53:42;3.00;1.00
3005;DHT22;1512;51.486;6.610;2023-03-01T21:57:51;3.00;1.00
3005;DHT22;1512;51.486;6.610;2023-03-01T22:01:59;3.00;1.00
3005;DHT22;1512;51.486;6.610;2023-03-01T22:06:08;2.90;99.90
3005;DHT22;1512;51.486;6.610;2023-03-01T22:10:18;2.90;1.00
3005;DHT22;1512;51.486;6.610;2023-03-01T22:14:30;2.90;1.00
3005;DHT22;1512;51.486;6.610;2023-03-01T22:18:39;2.90;99.90
3005;DHT22;1512;51.486;6.610;2023-03-01T22:22:47;2.90;1.00
3005;DHT22;1512;51.486;6.610;2023-03-01T22:26:56;2.90;1.00
3005;DHT22;1512;51.486;6.610;2023-03-01T22:31:04;2.90;1.00
3005;DHT22;1512;51.486;6.610;2023-03-01T22:35:13;2.90;1.00
3005;DHT22;1512;51.486;6.610;2023-03-01T22:39:22;2.80;99.90
3005;DHT22;1512;51.486;6.610;2023-03-01T22:43:32;2.80;99.90
3005;DHT22;1512;51.486;6.610;2023-03-01T22:47:40;2.80;1.00
3005;DHT22;1512;51.486;6.610;2023-03-01T22:51:49;2.80;1.00
3005;DHT22;1512;51.486;6.610;2023-03-01T23:00:20;2.80;99.90
3005;DHT22;1512;51.486;6.610;2023-03-01T23:04:29;2.80;99.90
3005;DHT22;1512;51.486;6.610;2023-03-01T23:08:38;2.90;1.00
3005;DHT22;1512;51.486;6.610;2023-03-01T23:12:46;2.80;1.00
3005;DHT22;1512;51.486;6.610;2023-03-01T23:16:55;2.80;1.00
3005;DHT22;1512;51.486;6.610;2023-03-01T23:21:13;2.80;1.00
3005;DHT22;1512;51.486;6.610;2023-03-01T23:25:22;2.80;1.00
3005;DHT22;1512;51.486;6.610;2023-03-01T23:29:32;2.70;1.00
3005;DHT22;1512;51.486;6.610;2023-03-01T23:33:42;2.70;1.00
3005;DHT22;1512;51.486;6.610;2023-03-01T23:37:51;2.70;99.90
3005;DHT22;1512;51.486;6.610;2023-03-01T23:42:00;2.70;1.00
3005;DHT22;1512;51.486;6.610;2023-03-01T23:46:08;2.70;1.00
3005;DHT22;1512;51.486;6.610;2023-03-01T23:50:19;2.70;99.90
3005;DHT22;1512;51.486;6.610;2023-03-01T23:54:28;2.60;1.00
3005;DHT22;1512;51.486;6.610;2023-03-01T23:58:36;2.60;99.90
